createdAt,value
2023-04-17T00:02:01.546Z,13.83
2023-04-17T00:05:03.099Z,13.77
2023-04-17T00:08:04.566Z,13.90
2023-04-17T00:11:08.670Z,11.93
2023-04-17T00:14:10.702Z,13.93
2023-04-17T00:17:12.100Z,14.27
2023-04-17T00:20:13.611Z,12.80
2023-04-17T00:23:14.962Z,12.73
2023-04-17T00:26:16.526Z,14.07
2023-04-17T00:29:18.093Z,14.67
2023-04-17T00:32:19.555Z,12.63
2023-04-17T00:35:21.120Z,12.47
2023-04-17T00:38:22.597Z,13.17
2023-04-17T00:41:24.155Z,13.63
2023-04-17T00:44:25.583Z,13.90
2023-04-17T00:47:27.435Z,13.23
2023-04-17T00:50:29.501Z,13.57
2023-04-17T00:53:31.580Z,15.30
2023-04-17T00:56:33.395Z,14.87
2023-04-17T00:59:37.125Z,12.67
2023-04-17T01:02:38.688Z,15.13
2023-04-17T01:05:41.207Z,17.00
2023-04-17T01:08:43.890Z,17.73
2023-04-17T01:11:45.806Z,14.50
2023-04-17T01:14:50.811Z,17.03
2023-04-17T01:17:52.249Z,16.57
2023-04-17T01:20:53.731Z,16.10
2023-04-17T01:23:55.771Z,15.77
2023-04-17T01:27:03.761Z,16.27
2023-04-17T01:30:05.863Z,17.03
2023-04-17T01:33:14.171Z,16.47
2023-04-17T01:36:16.264Z,16.87
2023-04-17T01:39:18.246Z,15.63
2023-04-17T01:42:19.627Z,14.80
2023-04-17T01:45:21.360Z,15.43
2023-04-17T01:48:22.728Z,20.10
2023-04-17T01:51:24.208Z,14.73
2023-04-17T01:54:25.932Z,16.17
2023-04-17T01:57:28.161Z,15.43
2023-04-17T02:00:30.003Z,16.77
2023-04-17T02:03:32.583Z,16.17
2023-04-17T02:06:34.531Z,18.20
2023-04-17T02:09:36.143Z,14.53
2023-04-17T02:12:37.586Z,15.60
2023-04-17T02:15:39.074Z,14.40
2023-04-17T02:18:40.878Z,16.80
2023-04-17T02:21:42.311Z,17.23
2023-04-17T02:24:43.921Z,16.40
2023-04-17T02:27:45.306Z,14.80
2023-04-17T02:30:46.778Z,16.60
2023-04-17T02:33:48.216Z,18.80
2023-04-17T02:36:49.666Z,15.07
2023-04-17T02:39:54.088Z,19.50
2023-04-17T02:42:55.848Z,16.13
2023-04-17T02:45:57.322Z,15.40
2023-04-17T02:49:00.470Z,15.60
2023-04-17T02:52:01.886Z,15.90
2023-04-17T02:55:03.562Z,15.83
2023-04-17T02:58:05.890Z,18.27
2023-04-17T03:01:07.319Z,17.57
2023-04-17T03:04:13.508Z,17.57
2023-04-17T03:07:18.614Z,16.23
2023-04-17T03:10:20.018Z,18.10
2023-04-17T03:13:22.139Z,19.37
2023-04-17T03:16:23.599Z,15.57
2023-04-17T03:19:25.169Z,16.27
2023-04-17T03:22:26.641Z,15.27
2023-04-17T03:25:28.227Z,19.97
2023-04-17T03:28:29.768Z,15.20
2023-04-17T03:31:31.229Z,16.30
2023-04-17T03:34:32.743Z,15.67
2023-04-17T03:37:34.407Z,15.07
2023-04-17T03:40:36.561Z,16.53
2023-04-17T03:43:37.977Z,15.53
2023-04-17T03:46:39.418Z,18.33
2023-04-17T03:49:40.856Z,15.23
2023-04-17T03:52:43.173Z,17.50
2023-04-17T03:55:44.590Z,17.53
2023-04-17T03:58:55.587Z,18.33
2023-04-17T04:01:57.605Z,15.10
2023-04-17T04:05:01.427Z,16.90
2023-04-17T04:08:03.014Z,15.53
2023-04-17T04:11:24.756Z,17.13
2023-04-17T04:14:26.382Z,17.37
2023-04-17T04:17:27.973Z,15.73
2023-04-17T04:20:30.778Z,17.13
2023-04-17T04:23:45.541Z,17.80
2023-04-17T04:26:49.782Z,17.53
2023-04-17T04:29:51.945Z,16.90
2023-04-17T04:32:56.906Z,16.80
2023-04-17T04:36:01.041Z,15.53
2023-04-17T04:39:06.755Z,16.23
2023-04-17T04:42:10.656Z,16.37
2023-04-17T04:45:26.717Z,17.13
2023-04-17T04:48:29.397Z,17.37
2023-04-17T04:51:31.837Z,17.10
2023-04-17T04:54:33.563Z,15.77
2023-04-17T04:57:36.313Z,16.80
2023-04-17T05:00:38.344Z,16.13
2023-04-17T05:03:40.799Z,17.63
2023-04-17T05:06:44.129Z,15.47
2023-04-17T05:09:45.608Z,16.83
2023-04-17T05:12:48.761Z,17.30
2023-04-17T05:15:51.440Z,16.67
2023-04-17T05:18:58.445Z,16.17
2023-04-17T05:22:19.172Z,15.97
2023-04-17T05:25:35.303Z,17.47
2023-04-17T05:28:40.865Z,18.23
2023-04-17T05:31:42.828Z,16.83
2023-04-17T05:34:57.183Z,16.70
2023-04-17T05:38:01.510Z,17.97
2023-04-17T05:41:03.083Z,16.13
2023-04-17T05:44:04.588Z,16.23
2023-04-17T05:47:07.014Z,15.50
2023-04-17T05:50:08.762Z,16.83
2023-04-17T05:53:10.681Z,14.77
2023-04-17T05:56:19.785Z,21.17
2023-04-17T05:59:21.248Z,17.27
2023-04-17T06:02:23.168Z,20.03
2023-04-17T06:05:24.898Z,18.50
2023-04-17T06:08:28.053Z,17.77
2023-04-17T06:11:29.463Z,21.23
2023-04-17T06:14:32.745Z,17.70
2023-04-17T06:17:38.011Z,19.50
2023-04-17T06:20:40.703Z,20.77
2023-04-17T06:23:42.118Z,23.83
2023-04-17T06:26:43.505Z,21.37
2023-04-17T06:29:45.059Z,19.80
2023-04-17T06:32:46.632Z,21.37
2023-04-17T06:35:48.177Z,23.37
2023-04-17T06:38:58.170Z,21.27
2023-04-17T06:41:59.584Z,20.97
2023-04-17T06:45:02.620Z,21.47
2023-04-17T06:48:04.352Z,20.87
2023-04-17T06:51:06.097Z,22.03
2023-04-17T06:54:09.781Z,20.53
2023-04-17T06:57:12.044Z,20.97
2023-04-17T07:00:14.212Z,20.77
2023-04-17T07:03:16.601Z,20.77
2023-04-17T07:06:19.392Z,21.97
2023-04-17T07:09:20.842Z,25.43
2023-04-17T07:12:22.759Z,22.50
2023-04-17T07:15:24.334Z,23.90
2023-04-17T07:18:26.759Z,20.87
2023-04-17T07:21:28.206Z,21.10
2023-04-17T07:24:29.650Z,18.93
2023-04-17T07:27:31.083Z,20.03
2023-04-17T07:30:32.698Z,19.07
2023-04-17T07:33:37.424Z,21.63
2023-04-17T07:36:40.541Z,17.27
2023-04-17T07:39:42.582Z,19.30
2023-04-17T07:42:44.081Z,20.13
2023-04-17T07:45:45.491Z,21.33
2023-04-17T07:48:46.884Z,22.40
2023-04-17T07:51:48.400Z,18.60
2023-04-17T07:54:49.790Z,20.80
2023-04-17T07:57:51.668Z,20.40
2023-04-17T08:00:53.200Z,18.73
2023-04-17T08:03:55.530Z,16.00
2023-04-17T08:06:57.181Z,15.00
2023-04-17T08:09:58.640Z,15.53
2023-04-17T08:13:01.887Z,14.17
2023-04-17T08:16:04.171Z,17.07
2023-04-17T08:19:05.711Z,18.17
2023-04-17T08:22:08.048Z,15.10
2023-04-17T08:25:10.714Z,14.97
2023-04-17T08:28:12.089Z,13.57
2023-04-17T08:31:13.922Z,14.63
2023-04-17T08:34:15.837Z,12.70
2023-04-17T08:37:17.244Z,11.50
2023-04-17T08:40:21.400Z,11.83
2023-04-17T08:43:25.976Z,13.50
2023-04-17T08:46:28.515Z,13.50
2023-04-17T08:49:33.627Z,10.60
2023-04-17T08:52:45.507Z,12.13
2023-04-17T08:55:48.225Z,11.87
2023-04-17T08:58:49.592Z,11.43
2023-04-17T09:02:05.167Z,11.47
2023-04-17T09:05:19.186Z,10.63
2023-04-17T09:08:23.962Z,9.80
2023-04-17T09:11:26.357Z,10.80
2023-04-17T09:14:31.395Z,11.10
2023-04-17T09:17:34.596Z,9.40
2023-04-17T09:20:49.720Z,7.93
2023-04-17T09:23:55.387Z,9.47
2023-04-17T09:27:18.600Z,10.87
2023-04-17T09:30:20.267Z,7.63
2023-04-17T09:33:21.838Z,6.47
2023-04-17T09:36:23.469Z,8.57
2023-04-17T09:39:25.081Z,7.10
2023-04-17T09:42:27.705Z,7.23
2023-04-17T09:45:39.954Z,5.77
2023-04-17T09:48:41.452Z,7.13
2023-04-17T09:51:42.856Z,5.70
2023-04-17T09:54:46.277Z,6.67
2023-04-17T09:57:55.394Z,6.43
2023-04-17T10:00:57.264Z,6.60
2023-04-17T10:03:59.534Z,5.43
2023-04-17T10:07:04.384Z,4.73
2023-04-17T10:10:10.626Z,6.03
2023-04-17T10:13:13.158Z,6.30
2023-04-17T10:16:15.010Z,6.47
2023-04-17T10:19:33.366Z,5.87
2023-04-17T10:22:41.102Z,6.70
2023-04-17T10:25:42.696Z,6.63
2023-04-17T10:28:49.196Z,6.53
2023-04-17T10:32:08.934Z,7.60
2023-04-17T10:35:16.579Z,5.80
2023-04-17T10:38:32.292Z,7.67
2023-04-17T10:41:33.796Z,6.00
2023-04-17T10:44:38.881Z,6.23
2023-04-17T10:47:40.652Z,7.87
2023-04-17T10:50:42.730Z,7.20
2023-04-17T10:53:44.936Z,7.63
2023-04-17T10:56:48.125Z,6.47
2023-04-17T11:00:13.721Z,7.30
2023-04-17T11:03:16.554Z,7.00
2023-04-17T11:06:19.061Z,7.53
2023-04-17T11:09:21.881Z,7.00
2023-04-17T11:12:23.285Z,7.97
2023-04-17T11:15:31.646Z,6.10
2023-04-17T11:18:33.162Z,7.73
2023-04-17T11:21:38.900Z,5.57
2023-04-17T11:24:40.276Z,6.47
2023-04-17T11:27:42.314Z,7.17
2023-04-17T11:30:46.801Z,6.17
2023-04-17T11:33:48.375Z,5.87
2023-04-17T11:36:51.484Z,6.80
2023-04-17T11:39:53.102Z,5.50
2023-04-17T11:42:54.608Z,6.60
2023-04-17T11:45:58.243Z,6.70
2023-04-17T11:48:59.905Z,6.50
2023-04-17T11:52:03.519Z,7.37
2023-04-17T11:55:08.924Z,5.93
2023-04-17T11:58:12.200Z,5.13
2023-04-17T12:01:13.879Z,5.93
2023-04-17T12:04:22.066Z,5.23
2023-04-17T12:07:24.793Z,4.73
2023-04-17T12:10:38.885Z,6.23
2023-04-17T12:13:40.301Z,4.23
2023-04-17T12:16:41.859Z,6.33
2023-04-17T12:19:45.076Z,2.83
2023-04-17T12:22:46.504Z,2.90
2023-04-17T12:25:51.847Z,3.10
2023-04-17T12:28:54.817Z,3.37
2023-04-17T12:31:56.421Z,2.83
2023-04-17T12:35:00.824Z,3.17
2023-04-17T12:38:02.462Z,2.40
2023-04-17T12:41:04.052Z,3.00
2023-04-17T12:44:05.707Z,4.37
2023-04-17T12:47:07.301Z,3.43
2023-04-17T12:50:10.886Z,3.47
2023-04-17T12:53:13.920Z,3.20
2023-04-17T12:56:15.535Z,4.00
2023-04-17T12:59:18.382Z,4.50
2023-04-17T13:02:21.100Z,3.80
2023-04-17T13:05:25.249Z,4.43
2023-04-17T13:08:26.709Z,3.63
2023-04-17T13:11:28.752Z,3.50
2023-04-17T13:14:30.771Z,4.67
2023-04-17T13:17:32.239Z,3.20
2023-04-17T13:20:35.185Z,3.40
2023-04-17T13:23:36.917Z,3.13
2023-04-17T13:26:38.418Z,4.03
2023-04-17T13:29:42.407Z,3.73
2023-04-17T13:32:44.063Z,3.37
2023-04-17T13:35:45.733Z,3.27
2023-04-17T13:38:47.169Z,4.00
2023-04-17T13:41:49.070Z,4.27
2023-04-17T13:44:50.588Z,4.13
2023-04-17T13:47:53.002Z,3.73
2023-04-17T13:50:54.478Z,5.07
2023-04-17T13:53:58.624Z,5.70
2023-04-17T13:57:01.134Z,4.97
2023-04-17T14:00:02.814Z,6.97
2023-04-17T14:03:06.230Z,5.43
2023-04-17T14:06:08.005Z,5.03
2023-04-17T14:09:11.150Z,4.50
2023-04-17T14:12:19.597Z,4.63
2023-04-17T14:15:21.340Z,8.37
2023-04-17T14:18:27.010Z,4.77
2023-04-17T14:21:28.749Z,5.73
2023-04-17T14:24:32.252Z,4.17
2023-04-17T14:27:37.300Z,4.50
2023-04-17T14:30:38.896Z,4.07
2023-04-17T14:33:40.408Z,3.67
2023-04-17T14:36:43.549Z,5.13
2023-04-17T14:39:45.428Z,4.17
2023-04-17T14:42:54.195Z,6.60
2023-04-17T14:45:57.325Z,4.10
2023-04-17T14:48:59.808Z,2.97
2023-04-17T14:52:01.375Z,4.43
2023-04-17T14:55:03.898Z,3.20
2023-04-17T14:58:05.493Z,3.83
2023-04-17T15:01:06.926Z,3.57
2023-04-17T15:04:08.487Z,3.20
2023-04-17T15:07:10.120Z,3.27
2023-04-17T15:10:11.973Z,3.27
2023-04-17T15:13:13.762Z,3.90
2023-04-17T15:16:15.433Z,3.80
2023-04-17T15:19:16.853Z,2.50
2023-04-17T15:22:20.020Z,3.20
2023-04-17T15:25:23.934Z,3.60
2023-04-17T15:28:25.523Z,2.50
2023-04-17T15:31:27.132Z,2.00
2023-04-17T15:34:30.169Z,2.57
2023-04-17T15:37:31.620Z,3.97
2023-04-17T15:40:33.918Z,1.77
2023-04-17T15:43:35.653Z,2.43
2023-04-17T15:46:38.755Z,4.47
2023-04-17T15:49:40.602Z,1.43
2023-04-17T15:52:42.176Z,2.57
2023-04-17T15:55:43.670Z,3.00
2023-04-17T15:58:45.158Z,3.07
2023-04-17T16:01:47.694Z,2.90
2023-04-17T16:04:49.244Z,2.40
2023-04-17T16:07:50.755Z,1.70
2023-04-17T16:10:52.139Z,1.50
2023-04-17T16:13:53.523Z,1.50
2023-04-17T16:16:54.981Z,1.60
2023-04-17T16:19:56.927Z,1.70
2023-04-17T16:22:58.346Z,3.70
2023-04-17T16:25:59.714Z,2.20
2023-04-17T16:29:01.105Z,1.90
2023-04-17T16:32:02.548Z,1.60
2023-04-17T16:35:04.391Z,2.27
2023-04-17T16:38:06.077Z,3.57
2023-04-17T16:41:07.477Z,1.70
2023-04-17T16:44:08.945Z,2.37
2023-04-17T16:47:13.855Z,1.60
2023-04-17T16:50:15.889Z,1.60
2023-04-17T16:53:17.895Z,1.83
2023-04-17T16:56:19.390Z,1.50
2023-04-17T16:59:20.838Z,2.30
2023-04-17T17:02:23.108Z,1.53
2023-04-17T17:05:24.691Z,3.43
2023-04-17T17:08:26.481Z,1.50
2023-04-17T17:11:27.861Z,1.40
2023-04-17T17:14:29.328Z,2.03
2023-04-17T17:17:30.791Z,1.70
2023-04-17T17:20:32.270Z,1.70
2023-04-17T17:23:34.492Z,3.40
2023-04-17T17:26:36.771Z,1.67
2023-04-17T17:29:38.696Z,1.83
2023-04-17T17:32:41.001Z,6.07
2023-04-17T17:35:43.192Z,2.60
2023-04-17T17:38:44.617Z,2.00
2023-04-17T17:41:47.438Z,2.70
2023-04-17T17:44:49.108Z,1.90
2023-04-17T17:47:50.634Z,3.07
2023-04-17T17:50:54.872Z,2.17
2023-04-17T17:53:56.296Z,2.73
2023-04-17T17:56:57.929Z,2.20
2023-04-17T17:59:59.936Z,1.97
2023-04-17T18:03:02.188Z,2.73
2023-04-17T18:06:04.005Z,3.00
2023-04-17T18:09:05.459Z,2.87
2023-04-17T18:12:07.544Z,2.30
2023-04-17T18:15:09.363Z,2.67
2023-04-17T18:18:10.830Z,2.40
2023-04-17T18:21:12.709Z,2.37
2023-04-17T18:24:14.439Z,3.60
2023-04-17T18:27:16.082Z,3.53
2023-04-17T18:30:17.462Z,4.47
2023-04-17T18:33:19.024Z,3.40
2023-04-17T18:36:20.398Z,3.87
2023-04-17T18:39:21.866Z,4.67
2023-04-17T18:42:23.414Z,5.57
2023-04-17T18:45:24.984Z,4.20
2023-04-17T18:48:26.485Z,4.47
2023-04-17T18:51:28.104Z,5.37
2023-04-17T18:54:29.691Z,4.97
2023-04-17T18:57:31.110Z,4.00
2023-04-17T19:00:32.763Z,5.03
2023-04-17T19:03:34.890Z,4.70
2023-04-17T19:06:36.421Z,8.27
2023-04-17T19:09:37.798Z,5.37
2023-04-17T19:12:39.979Z,5.40
2023-04-17T19:15:41.418Z,5.33
2023-04-17T19:18:42.833Z,5.10
2023-04-17T19:21:44.218Z,6.17
2023-04-17T19:24:49.641Z,6.80
2023-04-17T19:27:51.105Z,5.90
2023-04-17T19:30:52.493Z,4.70
2023-04-17T19:33:57.141Z,4.47
2023-04-17T19:36:58.677Z,6.43
2023-04-17T19:40:01.336Z,4.90
2023-04-17T19:43:03.956Z,5.13
2023-04-17T19:46:05.386Z,5.70
2023-04-17T19:49:07.030Z,4.20
2023-04-17T19:52:09.385Z,5.50
2023-04-17T19:55:11.490Z,4.37
2023-04-17T19:58:12.882Z,5.10
2023-04-17T20:01:14.891Z,6.93
2023-04-17T20:04:16.928Z,6.87
2023-04-17T20:07:18.477Z,4.83
2023-04-17T20:10:20.113Z,4.93
2023-04-17T20:13:22.143Z,5.53
2023-04-17T20:16:24.054Z,5.60
2023-04-17T20:19:25.628Z,4.70
2023-04-17T20:22:27.016Z,4.70
2023-04-17T20:25:30.281Z,5.33
2023-04-17T20:28:31.718Z,7.23
2023-04-17T20:31:36.153Z,6.60
2023-04-17T20:34:37.960Z,7.03
2023-04-17T20:37:40.574Z,6.17
2023-04-17T20:40:42.076Z,6.83
2023-04-17T20:43:43.545Z,6.70
2023-04-17T20:46:44.977Z,6.93
2023-04-17T20:49:46.408Z,6.20
2023-04-17T20:52:47.830Z,10.47
2023-04-17T20:55:49.222Z,9.10
2023-04-17T20:58:50.757Z,7.63
2023-04-17T21:01:52.392Z,6.73
2023-04-17T21:04:53.971Z,8.37
2023-04-17T21:07:57.541Z,6.90
2023-04-17T21:10:59.003Z,6.43
2023-04-17T21:14:00.412Z,9.93
2023-04-17T21:17:01.864Z,7.50
2023-04-17T21:20:04.856Z,6.97
2023-04-17T21:23:06.957Z,8.33
2023-04-17T21:26:08.494Z,9.60
2023-04-17T21:29:09.866Z,7.10
2023-04-17T21:32:11.323Z,6.10
2023-04-17T21:35:12.843Z,9.13
2023-04-17T21:38:14.262Z,7.97
2023-04-17T21:41:15.836Z,8.93
2023-04-17T21:44:17.279Z,6.40
2023-04-17T21:47:19.536Z,6.43
2023-04-17T21:50:20.956Z,6.40
2023-04-17T21:53:22.357Z,5.70
2023-04-17T21:56:24.450Z,8.37
2023-04-17T21:59:25.862Z,7.50
2023-04-17T22:02:27.362Z,7.27
2023-04-17T22:05:28.780Z,7.70
2023-04-17T22:08:30.235Z,6.67
2023-04-17T22:11:31.626Z,8.93
2023-04-17T22:14:33.037Z,10.30
2023-04-17T22:17:34.585Z,8.13
2023-04-17T22:20:36.355Z,8.03
2023-04-17T22:23:37.734Z,8.30
2023-04-17T22:26:39.140Z,7.50
2023-04-17T22:29:40.581Z,6.57
2023-04-17T22:32:42.384Z,8.13
2023-04-17T22:35:43.830Z,7.30
2023-04-17T22:38:45.363Z,6.50
2023-04-17T22:41:46.957Z,9.50
2023-04-17T22:44:48.329Z,7.20
2023-04-17T22:47:49.837Z,8.40
2023-04-17T22:50:51.268Z,7.27
2023-04-17T22:53:52.807Z,6.80
2023-04-17T22:56:54.195Z,7.07
2023-04-17T22:59:55.602Z,7.30
2023-04-17T23:02:57.266Z,7.33
2023-04-17T23:05:58.768Z,9.07
2023-04-17T23:09:00.183Z,6.83
2023-04-17T23:12:02.119Z,7.63
2023-04-17T23:15:04.159Z,7.67
2023-04-17T23:18:05.707Z,9.50
2023-04-17T23:21:07.208Z,9.47
2023-04-17T23:24:08.742Z,10.07
2023-04-17T23:27:10.140Z,6.40
2023-04-17T23:30:11.920Z,6.70
2023-04-17T23:33:13.326Z,9.03
2023-04-17T23:36:14.823Z,6.97
2023-04-17T23:39:16.184Z,7.90
2023-04-17T23:42:17.653Z,7.10
2023-04-17T23:45:19.047Z,7.83
2023-04-17T23:48:20.493Z,8.90
2023-04-17T23:51:21.865Z,8.23
2023-04-17T23:54:23.319Z,8.53
2023-04-17T23:57:24.876Z,7.13
